sensor_id;sensor_type;location;lat;lon;timestamp;P1;durP1;ratioP1;P2;durP2;ratioP2
8737;SDS011;4405;49.272;8.590;2022-09-01T00:01:24;3.63;;;3.33;;
8737;SDS011;4405;49.272;8.590;2022-09-01T00:03:51;3.20;;;3.00;;
8737;SDS011;4405;49.272;8.590;2022-09-01T00:06:18;3.23;;;3.13;;
8737;SDS011;4405;49.272;8.590;2022-09-01T00:08:46;3.80;;;3.60;;
8737;SDS011;4405;49.272;8.590;2022-09-01T00:11:13;4.40;;;3.40;;
8737;SDS011;4405;49.272;8.590;2022-09-01T00:13:39;3.70;;;3.37;;
8737;SDS011;4405;49.272;8.590;2022-09-01T00:16:05;3.80;;;3.50;;
8737;SDS011;4405;49.272;8.590;2022-09-01T00:18:34;3.17;;;3.00;;
8737;SDS011;4405;49.272;8.590;2022-09-01T00:21:01;3.63;;;3.23;;
8737;SDS011;4405;49.272;8.590;2022-09-01T00:23:27;3.73;;;3.40;;
8737;SDS011;4405;49.272;8.590;2022-09-01T00:25:54;3.50;;;3.20;;
8737;SDS011;4405;49.272;8.590;2022-09-01T00:28:21;4.00;;;3.40;;
8737;SDS011;4405;49.272;8.590;2022-09-01T00:30:47;3.37;;;3.23;;
8737;SDS011;4405;49.272;8.590;2022-09-01T00:33:14;3.90;;;3.70;;
8737;SDS011;4405;49.272;8.590;2022-09-01T00:35:41;3.23;;;3.13;;
8737;SDS011;4405;49.272;8.590;2022-09-01T00:38:08;3.43;;;3.20;;
8737;SDS011;4405;49.272;8.590;2022-09-01T00:40:34;4.87;;;3.87;;
8737;SDS011;4405;49.272;8.590;2022-09-01T00:43:09;3.47;;;3.23;;
8737;SDS011;4405;49.272;8.590;2022-09-01T00:45:35;3.40;;;3.23;;
8737;SDS011;4405;49.272;8.590;2022-09-01T00:48:02;3.47;;;3.27;;
8737;SDS011;4405;49.272;8.590;2022-09-01T00:50:29;3.53;;;3.33;;
8737;SDS011;4405;49.272;8.590;2022-09-01T00:52:57;4.83;;;3.80;;
8737;SDS011;4405;49.272;8.590;2022-09-01T00:55:26;3.70;;;3.50;;
8737;SDS011;4405;49.272;8.590;2022-09-01T00:57:53;3.40;;;3.20;;
8737;SDS011;4405;49.272;8.590;2022-09-01T01:00:20;3.57;;;3.47;;
8737;SDS011;4405;49.272;8.590;2022-09-01T01:02:48;3.37;;;3.27;;
8737;SDS011;4405;49.272;8.590;2022-09-01T01:05:20;5.33;;;3.30;;
8737;SDS011;4405;49.272;8.590;2022-09-01T01:07:47;3.70;;;3.53;;
8737;SDS011;4405;49.272;8.590;2022-09-01T01:10:16;3.77;;;3.50;;
8737;SDS011;4405;49.272;8.590;2022-09-01T01:12:44;5.37;;;3.70;;
8737;SDS011;4405;49.272;8.590;2022-09-01T01:15:11;4.13;;;3.73;;
8737;SDS011;4405;49.272;8.590;2022-09-01T01:17:38;4.33;;;3.63;;
8737;SDS011;4405;49.272;8.590;2022-09-01T01:20:05;6.20;;;3.97;;
8737;SDS011;4405;49.272;8.590;2022-09-01T01:22:53;3.70;;;3.50;;
8737;SDS011;4405;49.272;8.590;2022-09-01T01:25:29;6.73;;;4.20;;
8737;SDS011;4405;49.272;8.590;2022-09-01T01:28:02;3.90;;;3.60;;
8737;SDS011;4405;49.272;8.590;2022-09-01T01:30:28;4.40;;;4.10;;
8737;SDS011;4405;49.272;8.590;2022-09-01T01:32:59;4.50;;;4.07;;
8737;SDS011;4405;49.272;8.590;2022-09-01T01:35:25;4.40;;;4.10;;
8737;SDS011;4405;49.272;8.590;2022-09-01T01:37:52;4.10;;;3.83;;
8737;SDS011;4405;49.272;8.590;2022-09-01T01:40:19;3.70;;;3.50;;
8737;SDS011;4405;49.272;8.590;2022-09-01T01:42:49;4.13;;;3.83;;
8737;SDS011;4405;49.272;8.590;2022-09-01T01:45:16;3.80;;;3.60;;
8737;SDS011;4405;49.272;8.590;2022-09-01T01:47:43;4.30;;;3.90;;
8737;SDS011;4405;49.272;8.590;2022-09-01T01:50:15;3.93;;;3.73;;
8737;SDS011;4405;49.272;8.590;2022-09-01T01:52:42;3.77;;;3.57;;
8737;SDS011;4405;49.272;8.590;2022-09-01T01:55:08;4.27;;;3.87;;
8737;SDS011;4405;49.272;8.590;2022-09-01T01:57:37;4.10;;;3.90;;
8737;SDS011;4405;49.272;8.590;2022-09-01T02:00:05;4.77;;;3.77;;
8737;SDS011;4405;49.272;8.590;2022-09-01T02:02:33;4.30;;;4.07;;
8737;SDS011;4405;49.272;8.590;2022-09-01T02:05:02;3.87;;;3.77;;
8737;SDS011;4405;49.272;8.590;2022-09-01T02:07:29;5.17;;;4.27;;
8737;SDS011;4405;49.272;8.590;2022-09-01T02:09:56;4.20;;;3.80;;
8737;SDS011;4405;49.272;8.590;2022-09-01T02:12:23;4.43;;;4.13;;
8737;SDS011;4405;49.272;8.590;2022-09-01T02:14:49;3.90;;;3.70;;
8737;SDS011;4405;49.272;8.590;2022-09-01T02:17:20;4.23;;;3.90;;
8737;SDS011;4405;49.272;8.590;2022-09-01T02:19:46;4.37;;;3.97;;
8737;SDS011;4405;49.272;8.590;2022-09-01T02:22:13;6.40;;;4.30;;
8737;SDS011;4405;49.272;8.590;2022-09-01T02:24:39;5.07;;;4.43;;
8737;SDS011;4405;49.272;8.590;2022-09-01T02:27:08;4.33;;;4.00;;
8737;SDS011;4405;49.272;8.590;2022-09-01T02:29:35;4.30;;;3.90;;
8737;SDS011;4405;49.272;8.590;2022-09-01T02:32:02;4.23;;;3.70;;
8737;SDS011;4405;49.272;8.590;2022-09-01T02:34:29;4.50;;;4.10;;
8737;SDS011;4405;49.272;8.590;2022-09-01T02:36:56;4.60;;;4.20;;
8737;SDS011;4405;49.272;8.590;2022-09-01T02:39:23;4.17;;;3.97;;
8737;SDS011;4405;49.272;8.590;2022-09-01T02:41:50;4.63;;;4.20;;
8737;SDS011;4405;49.272;8.590;2022-09-01T02:44:18;4.23;;;4.00;;
8737;SDS011;4405;49.272;8.590;2022-09-01T02:46:47;4.30;;;4.00;;
8737;SDS011;4405;49.272;8.590;2022-09-01T02:49:15;4.20;;;3.90;;
8737;SDS011;4405;49.272;8.590;2022-09-01T02:51:45;4.07;;;3.87;;
8737;SDS011;4405;49.272;8.590;2022-09-01T02:54:12;5.17;;;4.70;;
8737;SDS011;4405;49.272;8.590;2022-09-01T02:56:41;4.50;;;4.10;;
8737;SDS011;4405;49.272;8.590;2022-09-01T02:59:08;4.87;;;4.40;;
8737;SDS011;4405;49.272;8.590;2022-09-01T03:01:36;4.40;;;4.20;;
8737;SDS011;4405;49.272;8.590;2022-09-01T03:04:04;4.50;;;4.13;;
8737;SDS011;4405;49.272;8.590;2022-09-01T03:06:32;4.67;;;4.37;;
8737;SDS011;4405;49.272;8.590;2022-09-01T03:09:03;4.60;;;4.30;;
8737;SDS011;4405;49.272;8.590;2022-09-01T03:11:30;4.47;;;4.27;;
8737;SDS011;4405;49.272;8.590;2022-09-01T03:13:58;4.77;;;4.37;;
8737;SDS011;4405;49.272;8.590;2022-09-01T03:16:24;5.07;;;4.40;;
8737;SDS011;4405;49.272;8.590;2022-09-01T03:18:51;5.70;;;4.40;;
8737;SDS011;4405;49.272;8.590;2022-09-01T03:21:17;4.90;;;4.60;;
8737;SDS011;4405;49.272;8.590;2022-09-01T03:23:44;5.20;;;4.70;;
8737;SDS011;4405;49.272;8.590;2022-09-01T03:26:13;5.17;;;4.70;;
8737;SDS011;4405;49.272;8.590;2022-09-01T03:28:42;5.50;;;4.80;;
8737;SDS011;4405;49.272;8.590;2022-09-01T03:31:09;5.00;;;4.60;;
8737;SDS011;4405;49.272;8.590;2022-09-01T03:33:35;4.90;;;4.60;;
8737;SDS011;4405;49.272;8.590;2022-09-01T03:36:02;5.23;;;4.80;;
8737;SDS011;4405;49.272;8.590;2022-09-01T03:38:28;4.87;;;4.57;;
8737;SDS011;4405;49.272;8.590;2022-09-01T03:40:57;5.03;;;4.60;;
8737;SDS011;4405;49.272;8.590;2022-09-01T03:43:26;5.10;;;4.80;;
8737;SDS011;4405;49.272;8.590;2022-09-01T03:45:53;5.17;;;4.77;;
8737;SDS011;4405;49.272;8.590;2022-09-01T03:48:20;6.00;;;4.60;;
8737;SDS011;4405;49.272;8.590;2022-09-01T03:50:47;5.77;;;4.50;;
8737;SDS011;4405;49.272;8.590;2022-09-01T03:53:16;5.10;;;4.60;;
8737;SDS011;4405;49.272;8.590;2022-09-01T03:55:43;4.70;;;4.40;;
8737;SDS011;4405;49.272;8.590;2022-09-01T03:58:10;4.30;;;4.10;;
8737;SDS011;4405;49.272;8.590;2022-09-01T04:00:42;4.80;;;4.50;;
8737;SDS011;4405;49.272;8.590;2022-09-01T04:03:09;4.80;;;4.40;;
8737;SDS011;4405;49.272;8.590;2022-09-01T04:05:37;5.47;;;4.90;;
8737;SDS011;4405;49.272;8.590;2022-09-01T04:08:05;5.17;;;4.77;;
8737;SDS011;4405;49.272;8.590;2022-09-01T04:10:35;4.83;;;4.47;;
8737;SDS011;4405;49.272;8.590;2022-09-01T04:13:02;5.13;;;4.80;;
8737;SDS011;4405;49.272;8.590;2022-09-01T04:15:29;4.77;;;4.47;;
8737;SDS011;4405;49.272;8.590;2022-09-01T04:17:57;5.17;;;4.77;;
8737;SDS011;4405;49.272;8.590;2022-09-01T04:20:33;4.30;;;4.10;;
8737;SDS011;4405;49.272;8.590;2022-09-01T04:23:11;4.80;;;4.50;;
8737;SDS011;4405;49.272;8.590;2022-09-01T04:25:41;5.07;;;4.77;;
8737;SDS011;4405;49.272;8.590;2022-09-01T04:28:07;5.13;;;4.73;;
8737;SDS011;4405;49.272;8.590;2022-09-01T04:30:41;5.73;;;4.67;;
8737;SDS011;4405;49.272;8.590;2022-09-01T04:33:09;4.60;;;4.30;;
8737;SDS011;4405;49.272;8.590;2022-09-01T04:35:36;6.10;;;4.80;;
8737;SDS011;4405;49.272;8.590;2022-09-01T04:38:02;5.30;;;4.90;;
8737;SDS011;4405;49.272;8.590;2022-09-01T04:40:32;5.10;;;4.70;;
8737;SDS011;4405;49.272;8.590;2022-09-01T04:43:01;5.00;;;4.70;;
8737;SDS011;4405;49.272;8.590;2022-09-01T04:45:28;4.53;;;4.33;;
8737;SDS011;4405;49.272;8.590;2022-09-01T04:47:55;5.27;;;4.70;;
8737;SDS011;4405;49.272;8.590;2022-09-01T04:50:25;5.03;;;4.57;;
8737;SDS011;4405;49.272;8.590;2022-09-01T04:52:54;5.23;;;4.77;;
8737;SDS011;4405;49.272;8.590;2022-09-01T04:55:22;5.27;;;4.83;;
8737;SDS011;4405;49.272;8.590;2022-09-01T04:57:52;4.60;;;4.30;;
8737;SDS011;4405;49.272;8.590;2022-09-01T05:00:20;5.00;;;4.60;;
8737;SDS011;4405;49.272;8.590;2022-09-01T05:02:49;5.77;;;4.70;;
8737;SDS011;4405;49.272;8.590;2022-09-01T05:05:17;4.80;;;4.50;;
8737;SDS011;4405;49.272;8.590;2022-09-01T05:07:45;5.20;;;4.80;;
8737;SDS011;4405;49.272;8.590;2022-09-01T05:10:16;5.27;;;4.57;;
8737;SDS011;4405;49.272;8.590;2022-09-01T05:12:43;5.03;;;4.73;;
8737;SDS011;4405;49.272;8.590;2022-09-01T05:15:10;7.77;;;4.60;;
8737;SDS011;4405;49.272;8.590;2022-09-01T05:17:37;4.73;;;4.47;;
8737;SDS011;4405;49.272;8.590;2022-09-01T05:20:04;4.53;;;4.23;;
8737;SDS011;4405;49.272;8.590;2022-09-01T05:22:31;4.40;;;3.83;;
8737;SDS011;4405;49.272;8.590;2022-09-01T05:24:59;5.37;;;4.20;;
8737;SDS011;4405;49.272;8.590;2022-09-01T05:27:35;4.33;;;4.07;;
8737;SDS011;4405;49.272;8.590;2022-09-01T05:30:03;4.50;;;4.10;;
8737;SDS011;4405;49.272;8.590;2022-09-01T05:32:32;4.50;;;4.17;;
8737;SDS011;4405;49.272;8.590;2022-09-01T05:35:00;4.67;;;4.37;;
8737;SDS011;4405;49.272;8.590;2022-09-01T05:37:27;10.60;;;6.00;;
8737;SDS011;4405;49.272;8.590;2022-09-01T05:39:53;5.30;;;4.80;;
8737;SDS011;4405;49.272;8.590;2022-09-01T05:42:21;6.10;;;5.50;;
8737;SDS011;4405;49.272;8.590;2022-09-01T05:44:48;7.17;;;5.70;;
8737;SDS011;4405;49.272;8.590;2022-09-01T05:47:15;6.17;;;5.67;;
8737;SDS011;4405;49.272;8.590;2022-09-01T05:49:41;6.03;;;5.43;;
8737;SDS011;4405;49.272;8.590;2022-09-01T05:52:08;5.43;;;5.03;;
8737;SDS011;4405;49.272;8.590;2022-09-01T05:54:35;7.00;;;5.63;;
8737;SDS011;4405;49.272;8.590;2022-09-01T05:57:02;6.10;;;5.50;;
8737;SDS011;4405;49.272;8.590;2022-09-01T05:59:29;7.53;;;5.47;;
8737;SDS011;4405;49.272;8.590;2022-09-01T06:01:56;6.93;;;5.70;;
8737;SDS011;4405;49.272;8.590;2022-09-01T06:04:23;5.90;;;5.47;;
8737;SDS011;4405;49.272;8.590;2022-09-01T06:06:50;4.97;;;4.67;;
8737;SDS011;4405;49.272;8.590;2022-09-01T06:09:17;5.83;;;5.40;;
8737;SDS011;4405;49.272;8.590;2022-09-01T06:11:44;5.60;;;5.23;;
8737;SDS011;4405;49.272;8.590;2022-09-01T06:14:12;6.07;;;5.57;;
8737;SDS011;4405;49.272;8.590;2022-09-01T06:16:41;5.77;;;5.27;;
8737;SDS011;4405;49.272;8.590;2022-09-01T06:19:07;6.17;;;5.63;;
8737;SDS011;4405;49.272;8.590;2022-09-01T06:21:34;6.07;;;5.57;;
8737;SDS011;4405;49.272;8.590;2022-09-01T06:24:01;6.33;;;5.70;;
8737;SDS011;4405;49.272;8.590;2022-09-01T06:26:29;7.70;;;5.27;;
8737;SDS011;4405;49.272;8.590;2022-09-01T06:28:56;7.63;;;5.50;;
8737;SDS011;4405;49.272;8.590;2022-09-01T06:31:24;6.93;;;5.30;;
8737;SDS011;4405;49.272;8.590;2022-09-01T06:33:54;6.13;;;5.50;;
8737;SDS011;4405;49.272;8.590;2022-09-01T06:36:24;5.47;;;5.13;;
8737;SDS011;4405;49.272;8.590;2022-09-01T06:38:50;5.90;;;5.40;;
8737;SDS011;4405;49.272;8.590;2022-09-01T06:41:17;6.23;;;5.83;;
8737;SDS011;4405;49.272;8.590;2022-09-01T06:43:44;5.63;;;5.23;;
8737;SDS011;4405;49.272;8.590;2022-09-01T06:46:10;6.30;;;5.80;;
8737;SDS011;4405;49.272;8.590;2022-09-01T06:48:37;8.00;;;7.40;;
8737;SDS011;4405;49.272;8.590;2022-09-01T06:51:11;6.93;;;6.50;;
8737;SDS011;4405;49.272;8.590;2022-09-01T06:53:38;8.10;;;7.57;;
8737;SDS011;4405;49.272;8.590;2022-09-01T06:56:05;9.03;;;8.20;;
8737;SDS011;4405;49.272;8.590;2022-09-01T06:58:33;9.57;;;8.70;;
8737;SDS011;4405;49.272;8.590;2022-09-01T07:01:04;9.10;;;8.17;;
8737;SDS011;4405;49.272;8.590;2022-09-01T07:03:30;10.57;;;8.80;;
8737;SDS011;4405;49.272;8.590;2022-09-01T07:05:58;9.40;;;8.60;;
8737;SDS011;4405;49.272;8.590;2022-09-01T07:08:26;8.63;;;7.93;;
8737;SDS011;4405;49.272;8.590;2022-09-01T07:10:52;7.83;;;7.23;;
8737;SDS011;4405;49.272;8.590;2022-09-01T07:13:20;8.87;;;8.13;;
8737;SDS011;4405;49.272;8.590;2022-09-01T07:15:49;9.80;;;8.93;;
8737;SDS011;4405;49.272;8.590;2022-09-01T07:18:16;10.20;;;9.40;;
8737;SDS011;4405;49.272;8.590;2022-09-01T07:20:45;9.40;;;8.60;;
8737;SDS011;4405;49.272;8.590;2022-09-01T07:23:12;8.47;;;7.87;;
8737;SDS011;4405;49.272;8.590;2022-09-01T07:25:43;9.60;;;8.70;;
8737;SDS011;4405;49.272;8.590;2022-09-01T07:28:10;8.40;;;7.70;;
8737;SDS011;4405;49.272;8.590;2022-09-01T07:30:39;7.97;;;7.37;;
8737;SDS011;4405;49.272;8.590;2022-09-01T07:33:06;9.87;;;8.20;;
8737;SDS011;4405;49.272;8.590;2022-09-01T07:35:36;8.77;;;8.00;;
8737;SDS011;4405;49.272;8.590;2022-09-01T07:38:03;8.67;;;7.90;;
8737;SDS011;4405;49.272;8.590;2022-09-01T07:40:34;8.00;;;7.20;;
8737;SDS011;4405;49.272;8.590;2022-09-01T07:43:03;9.57;;;8.73;;
8737;SDS011;4405;49.272;8.590;2022-09-01T07:45:32;9.17;;;8.27;;
8737;SDS011;4405;49.272;8.590;2022-09-01T07:47:58;7.90;;;7.30;;
8737;SDS011;4405;49.272;8.590;2022-09-01T07:50:30;9.67;;;8.87;;
8737;SDS011;4405;49.272;8.590;2022-09-01T07:52:57;9.17;;;8.30;;
8737;SDS011;4405;49.272;8.590;2022-09-01T07:55:24;7.57;;;6.93;;
8737;SDS011;4405;49.272;8.590;2022-09-01T07:57:52;7.43;;;6.90;;
8737;SDS011;4405;49.272;8.590;2022-09-01T08:00:20;9.33;;;8.60;;
8737;SDS011;4405;49.272;8.590;2022-09-01T08:02:47;8.87;;;8.17;;
8737;SDS011;4405;49.272;8.590;2022-09-01T08:05:14;5.93;;;5.53;;
8737;SDS011;4405;49.272;8.590;2022-09-01T08:07:42;8.97;;;8.27;;
8737;SDS011;4405;49.272;8.590;2022-09-01T08:10:11;8.70;;;8.10;;
8737;SDS011;4405;49.272;8.590;2022-09-01T08:12:37;6.47;;;6.07;;
8737;SDS011;4405;49.272;8.590;2022-09-01T08:15:05;8.57;;;7.87;;
8737;SDS011;4405;49.272;8.590;2022-09-01T08:17:34;7.93;;;7.33;;
8737;SDS011;4405;49.272;8.590;2022-09-01T08:20:02;6.23;;;5.73;;
8737;SDS011;4405;49.272;8.590;2022-09-01T08:22:31;7.40;;;6.80;;
8737;SDS011;4405;49.272;8.590;2022-09-01T08:24:57;6.67;;;5.43;;
8737;SDS011;4405;49.272;8.590;2022-09-01T08:27:24;6.90;;;6.40;;
8737;SDS011;4405;49.272;8.590;2022-09-01T08:29:50;6.03;;;5.63;;
8737;SDS011;4405;49.272;8.590;2022-09-01T08:32:17;5.90;;;5.60;;
8737;SDS011;4405;49.272;8.590;2022-09-01T08:34:45;6.57;;;6.17;;
8737;SDS011;4405;49.272;8.590;2022-09-01T08:37:12;6.10;;;5.60;;
8737;SDS011;4405;49.272;8.590;2022-09-01T08:39:38;7.67;;;6.10;;
8737;SDS011;4405;49.272;8.590;2022-09-01T08:42:06;9.70;;;6.53;;
8737;SDS011;4405;49.272;8.590;2022-09-01T08:44:35;7.33;;;6.63;;
8737;SDS011;4405;49.272;8.590;2022-09-01T08:47:05;5.87;;;5.50;;
8737;SDS011;4405;49.272;8.590;2022-09-01T08:49:32;6.63;;;4.60;;
8737;SDS011;4405;49.272;8.590;2022-09-01T08:52:06;6.20;;;5.70;;
8737;SDS011;4405;49.272;8.590;2022-09-01T08:54:34;6.27;;;5.67;;
8737;SDS011;4405;49.272;8.590;2022-09-01T08:57:04;6.50;;;6.10;;
8737;SDS011;4405;49.272;8.590;2022-09-01T08:59:30;6.70;;;6.30;;
8737;SDS011;4405;49.272;8.590;2022-09-01T09:01:59;5.87;;;5.47;;
8737;SDS011;4405;49.272;8.590;2022-09-01T09:04:32;7.27;;;6.57;;
8737;SDS011;4405;49.272;8.590;2022-09-01T09:07:01;5.47;;;5.00;;
8737;SDS011;4405;49.272;8.590;2022-09-01T09:09:33;5.33;;;5.00;;
8737;SDS011;4405;49.272;8.590;2022-09-01T09:12:11;5.40;;;5.00;;
8737;SDS011;4405;49.272;8.590;2022-09-01T09:14:52;5.40;;;5.10;;
8737;SDS011;4405;49.272;8.590;2022-09-01T09:17:22;5.80;;;5.40;;
8737;SDS011;4405;49.272;8.590;2022-09-01T09:19:50;5.43;;;5.03;;
8737;SDS011;4405;49.272;8.590;2022-09-01T09:22:18;5.10;;;4.77;;
8737;SDS011;4405;49.272;8.590;2022-09-01T09:24:46;4.90;;;4.50;;
8737;SDS011;4405;49.272;8.590;2022-09-01T09:27:15;5.40;;;4.80;;
8737;SDS011;4405;49.272;8.590;2022-09-01T09:29:42;4.90;;;4.50;;
8737;SDS011;4405;49.272;8.590;2022-09-01T09:32:08;5.00;;;4.70;;
8737;SDS011;4405;49.272;8.590;2022-09-01T09:34:36;5.93;;;5.47;;
8737;SDS011;4405;49.272;8.590;2022-09-01T09:37:16;6.00;;;5.50;;
8737;SDS011;4405;49.272;8.590;2022-09-01T09:39:43;5.13;;;4.80;;
8737;SDS011;4405;49.272;8.590;2022-09-01T09:42:11;5.33;;;4.93;;
8737;SDS011;4405;49.272;8.590;2022-09-01T09:44:39;5.13;;;4.93;;
8737;SDS011;4405;49.272;8.590;2022-09-01T09:47:08;5.27;;;4.97;;
8737;SDS011;4405;49.272;8.590;2022-09-01T09:49:35;5.03;;;4.73;;
8737;SDS011;4405;49.272;8.590;2022-09-01T09:52:11;5.23;;;4.80;;
8737;SDS011;4405;49.272;8.590;2022-09-01T09:54:39;4.50;;;4.30;;
8737;SDS011;4405;49.272;8.590;2022-09-01T09:57:10;4.67;;;4.47;;
8737;SDS011;4405;49.272;8.590;2022-09-01T09:59:38;4.80;;;4.50;;
8737;SDS011;4405;49.272;8.590;2022-09-01T10:02:16;4.60;;;4.40;;
8737;SDS011;4405;49.272;8.590;2022-09-01T10:04:47;5.57;;;5.07;;
8737;SDS011;4405;49.272;8.590;2022-09-01T10:07:27;5.20;;;4.80;;
8737;SDS011;4405;49.272;8.590;2022-09-01T10:09:56;5.37;;;3.97;;
8737;SDS011;4405;49.272;8.590;2022-09-01T10:12:24;4.33;;;4.17;;
8737;SDS011;4405;49.272;8.590;2022-09-01T10:14:52;6.90;;;4.70;;
8737;SDS011;4405;49.272;8.590;2022-09-01T10:17:20;4.60;;;4.40;;
8737;SDS011;4405;49.272;8.590;2022-09-01T10:19:48;4.27;;;4.07;;
8737;SDS011;4405;49.272;8.590;2022-09-01T10:22:18;4.73;;;4.43;;
8737;SDS011;4405;49.272;8.590;2022-09-01T10:24:44;4.67;;;4.13;;
8737;SDS011;4405;49.272;8.590;2022-09-01T10:27:12;4.40;;;4.10;;
8737;SDS011;4405;49.272;8.590;2022-09-01T10:29:42;4.37;;;4.00;;
8737;SDS011;4405;49.272;8.590;2022-09-01T10:32:11;3.67;;;3.53;;
8737;SDS011;4405;49.272;8.590;2022-09-01T10:34:38;3.73;;;3.40;;
8737;SDS011;4405;49.272;8.590;2022-09-01T10:37:05;3.70;;;3.47;;
8737;SDS011;4405;49.272;8.590;2022-09-01T10:39:32;3.57;;;3.37;;
8737;SDS011;4405;49.272;8.590;2022-09-01T10:41:58;3.17;;;3.07;;
8737;SDS011;4405;49.272;8.590;2022-09-01T10:44:32;3.50;;;3.30;;
8737;SDS011;4405;49.272;8.590;2022-09-01T10:47:01;3.80;;;3.50;;
8737;SDS011;4405;49.272;8.590;2022-09-01T10:55:00;3.00;;;2.90;;
8737;SDS011;4405;49.272;8.590;2022-09-01T10:57:39;3.20;;;3.10;;
8737;SDS011;4405;49.272;8.590;2022-09-01T11:08:23;3.30;;;3.10;;
8737;SDS011;4405;49.272;8.590;2022-09-01T11:10:51;3.27;;;3.03;;
8737;SDS011;4405;49.272;8.590;2022-09-01T11:13:27;3.30;;;3.10;;
8737;SDS011;4405;49.272;8.590;2022-09-01T11:15:55;4.53;;;3.30;;
8737;SDS011;4405;49.272;8.590;2022-09-01T11:18:26;3.63;;;3.37;;
8737;SDS011;4405;49.272;8.590;2022-09-01T11:20:54;2.97;;;2.87;;
8737;SDS011;4405;49.272;8.590;2022-09-01T11:23:40;3.37;;;3.17;;
8737;SDS011;4405;49.272;8.590;2022-09-01T11:28:48;3.13;;;3.03;;
8737;SDS011;4405;49.272;8.590;2022-09-01T11:31:19;3.13;;;3.00;;
8737;SDS011;4405;49.272;8.590;2022-09-01T11:33:52;3.40;;;3.23;;
8737;SDS011;4405;49.272;8.590;2022-09-01T11:36:23;3.47;;;3.37;;
8737;SDS011;4405;49.272;8.590;2022-09-01T11:38:55;3.80;;;3.50;;
8737;SDS011;4405;49.272;8.590;2022-09-01T11:41:22;4.00;;;3.70;;
8737;SDS011;4405;49.272;8.590;2022-09-01T11:43:50;4.10;;;3.90;;
8737;SDS011;4405;49.272;8.590;2022-09-01T11:46:19;3.93;;;3.63;;
8737;SDS011;4405;49.272;8.590;2022-09-01T11:48:47;5.07;;;3.60;;
8737;SDS011;4405;49.272;8.590;2022-09-01T11:51:13;3.80;;;3.60;;
8737;SDS011;4405;49.272;8.590;2022-09-01T11:53:40;3.47;;;3.37;;
8737;SDS011;4405;49.272;8.590;2022-09-01T11:56:13;3.17;;;3.07;;
8737;SDS011;4405;49.272;8.590;2022-09-01T11:58:39;3.50;;;3.40;;
8737;SDS011;4405;49.272;8.590;2022-09-01T12:01:14;4.10;;;3.80;;
8737;SDS011;4405;49.272;8.590;2022-09-01T12:03:40;3.90;;;3.70;;
8737;SDS011;4405;49.272;8.590;2022-09-01T12:06:08;3.90;;;3.70;;
8737;SDS011;4405;49.272;8.590;2022-09-01T12:08:35;4.10;;;3.80;;
8737;SDS011;4405;49.272;8.590;2022-09-01T12:11:03;4.07;;;3.90;;
8737;SDS011;4405;49.272;8.590;2022-09-01T12:13:31;3.43;;;3.33;;
8737;SDS011;4405;49.272;8.590;2022-09-01T12:15:59;4.07;;;3.77;;
8737;SDS011;4405;49.272;8.590;2022-09-01T12:18:26;3.90;;;3.63;;
8737;SDS011;4405;49.272;8.590;2022-09-01T12:20:53;3.83;;;3.53;;
8737;SDS011;4405;49.272;8.590;2022-09-01T12:23:22;3.50;;;3.40;;
8737;SDS011;4405;49.272;8.590;2022-09-01T12:25:49;3.80;;;3.70;;
8737;SDS011;4405;49.272;8.590;2022-09-01T12:28:17;4.07;;;3.70;;
8737;SDS011;4405;49.272;8.590;2022-09-01T12:30:45;3.97;;;3.50;;
8737;SDS011;4405;49.272;8.590;2022-09-01T12:33:11;3.80;;;3.60;;
8737;SDS011;4405;49.272;8.590;2022-09-01T12:35:38;4.07;;;3.87;;
8737;SDS011;4405;49.272;8.590;2022-09-01T12:38:15;3.60;;;3.40;;
8737;SDS011;4405;49.272;8.590;2022-09-01T12:40:41;3.63;;;3.40;;
8737;SDS011;4405;49.272;8.590;2022-09-01T12:43:08;3.30;;;3.20;;
8737;SDS011;4405;49.272;8.590;2022-09-01T12:45:35;3.53;;;3.27;;
8737;SDS011;4405;49.272;8.590;2022-09-01T12:48:03;3.40;;;3.30;;
8737;SDS011;4405;49.272;8.590;2022-09-01T12:50:34;3.57;;;3.37;;
8737;SDS011;4405;49.272;8.590;2022-09-01T12:53:00;3.80;;;3.50;;
8737;SDS011;4405;49.272;8.590;2022-09-01T12:55:28;3.43;;;3.33;;
8737;SDS011;4405;49.272;8.590;2022-09-01T12:57:55;3.50;;;3.30;;
8737;SDS011;4405;49.272;8.590;2022-09-01T13:00:24;3.77;;;3.43;;
8737;SDS011;4405;49.272;8.590;2022-09-01T13:02:51;3.77;;;3.57;;
8737;SDS011;4405;49.272;8.590;2022-09-01T13:05:31;3.50;;;3.20;;
8737;SDS011;4405;49.272;8.590;2022-09-01T13:07:59;3.80;;;3.60;;
8737;SDS011;4405;49.272;8.590;2022-09-01T13:10:28;3.90;;;3.70;;
8737;SDS011;4405;49.272;8.590;2022-09-01T13:12:55;3.30;;;3.20;;
8737;SDS011;4405;49.272;8.590;2022-09-01T13:15:23;3.50;;;3.20;;
8737;SDS011;4405;49.272;8.590;2022-09-01T13:17:50;3.40;;;3.20;;
8737;SDS011;4405;49.272;8.590;2022-09-01T13:20:17;3.60;;;3.30;;
8737;SDS011;4405;49.272;8.590;2022-09-01T13:22:44;3.73;;;3.43;;
8737;SDS011;4405;49.272;8.590;2022-09-01T13:25:11;4.83;;;3.30;;
8737;SDS011;4405;49.272;8.590;2022-09-01T13:27:41;3.40;;;3.30;;
8737;SDS011;4405;49.272;8.590;2022-09-01T13:30:09;3.40;;;3.20;;
8737;SDS011;4405;49.272;8.590;2022-09-01T13:32:36;3.17;;;3.07;;
8737;SDS011;4405;49.272;8.590;2022-09-01T13:35:02;3.10;;;2.90;;
8737;SDS011;4405;49.272;8.590;2022-09-01T13:37:29;3.03;;;2.60;;
8737;SDS011;4405;49.272;8.590;2022-09-01T13:39:57;3.10;;;2.90;;
8737;SDS011;4405;49.272;8.590;2022-09-01T13:42:23;3.00;;;2.80;;
8737;SDS011;4405;49.272;8.590;2022-09-01T13:44:50;4.03;;;3.00;;
8737;SDS011;4405;49.272;8.590;2022-09-01T13:47:16;2.93;;;2.73;;
8737;SDS011;4405;49.272;8.590;2022-09-01T13:49:43;3.20;;;2.97;;
8737;SDS011;4405;49.272;8.590;2022-09-01T13:52:09;3.50;;;3.30;;
8737;SDS011;4405;49.272;8.590;2022-09-01T13:54:36;3.00;;;2.90;;
8737;SDS011;4405;49.272;8.590;2022-09-01T13:57:04;5.60;;;3.03;;
8737;SDS011;4405;49.272;8.590;2022-09-01T13:59:31;4.30;;;3.57;;
8737;SDS011;4405;49.272;8.590;2022-09-01T14:01:57;3.08;;;2.88;;
8737;SDS011;4405;49.272;8.590;2022-09-01T14:04:25;2.97;;;2.83;;
8737;SDS011;4405;49.272;8.590;2022-09-01T14:06:51;2.40;;;2.40;;
8737;SDS011;4405;49.272;8.590;2022-09-01T14:09:19;3.13;;;3.00;;
8737;SDS011;4405;49.272;8.590;2022-09-01T14:11:45;3.00;;;2.80;;
8737;SDS011;4405;49.272;8.590;2022-09-01T14:14:13;3.00;;;2.90;;
8737;SDS011;4405;49.272;8.590;2022-09-01T14:16:40;2.95;;;2.80;;
8737;SDS011;4405;49.272;8.590;2022-09-01T14:19:06;3.13;;;2.92;;
8737;SDS011;4405;49.272;8.590;2022-09-01T14:21:32;3.20;;;3.00;;
8737;SDS011;4405;49.272;8.590;2022-09-01T14:23:59;3.22;;;2.97;;
8737;SDS011;4405;49.272;8.590;2022-09-01T14:26:25;2.95;;;2.85;;
8737;SDS011;4405;49.272;8.590;2022-09-01T14:28:51;3.40;;;3.10;;
8737;SDS011;4405;49.272;8.590;2022-09-01T14:31:20;2.60;;;2.50;;
8737;SDS011;4405;49.272;8.590;2022-09-01T14:33:47;3.00;;;2.83;;
8737;SDS011;4405;49.272;8.590;2022-09-01T14:36:17;2.93;;;2.70;;
8737;SDS011;4405;49.272;8.590;2022-09-01T14:38:44;4.13;;;2.63;;
8737;SDS011;4405;49.272;8.590;2022-09-01T14:41:12;2.60;;;2.50;;
8737;SDS011;4405;49.272;8.590;2022-09-01T14:43:38;2.83;;;2.67;;
8737;SDS011;4405;49.272;8.590;2022-09-01T14:46:07;2.63;;;2.60;;
8737;SDS011;4405;49.272;8.590;2022-09-01T14:48:36;2.53;;;2.37;;
8737;SDS011;4405;49.272;8.590;2022-09-01T14:51:03;3.00;;;2.80;;
8737;SDS011;4405;49.272;8.590;2022-09-01T14:53:30;2.90;;;2.70;;
8737;SDS011;4405;49.272;8.590;2022-09-01T14:55:56;2.47;;;2.47;;
8737;SDS011;4405;49.272;8.590;2022-09-01T14:58:23;3.00;;;2.77;;
8737;SDS011;4405;49.272;8.590;2022-09-01T15:00:50;2.70;;;2.60;;
8737;SDS011;4405;49.272;8.590;2022-09-01T15:03:18;2.90;;;2.80;;
8737;SDS011;4405;49.272;8.590;2022-09-01T15:05:46;3.00;;;2.80;;
8737;SDS011;4405;49.272;8.590;2022-09-01T15:08:14;2.50;;;2.40;;
8737;SDS011;4405;49.272;8.590;2022-09-01T15:10:41;3.97;;;2.90;;
8737;SDS011;4405;49.272;8.590;2022-09-01T15:13:07;2.67;;;2.63;;
8737;SDS011;4405;49.272;8.590;2022-09-01T15:15:34;3.67;;;3.47;;
8737;SDS011;4405;49.272;8.590;2022-09-01T15:18:00;2.80;;;2.70;;
8737;SDS011;4405;49.272;8.590;2022-09-01T15:20:27;3.00;;;2.80;;
8737;SDS011;4405;49.272;8.590;2022-09-01T15:23:14;2.90;;;2.70;;
8737;SDS011;4405;49.272;8.590;2022-09-01T15:25:41;2.97;;;2.80;;
8737;SDS011;4405;49.272;8.590;2022-09-01T15:28:07;2.50;;;2.40;;
8737;SDS011;4405;49.272;8.590;2022-09-01T15:30:34;3.10;;;2.90;;
8737;SDS011;4405;49.272;8.590;2022-09-01T15:33:01;3.10;;;2.80;;
8737;SDS011;4405;49.272;8.590;2022-09-01T15:35:28;2.73;;;2.63;;
8737;SDS011;4405;49.272;8.590;2022-09-01T15:37:54;3.00;;;2.80;;